Time;durP1;ratioP1;P1;durP2;ratioP2;P2;SDS_P1;SDS_P2;PMS_P1;PMS_P2;Temp;Humidity;BMP_temperature;BMP_pressure;BME280_temperature;BME280_humidity;BME280_pressure;Samples;Min_cycle;Max_cycle;Signal;HPM_P1;HPM_P2
2022/04/07 00:01:27;;;;;;;8.27;3.33;;;9.80;99.90;;;;;;5071048;28;20040;-78
2022/04/07 00:03:52;;;;;;;10.90;3.40;;;9.80;99.90;;;;;;5043163;28;20038;-78
2022/04/07 00:06:18;;;;;;;14.37;3.17;;;9.80;99.90;;;;;;5065926;28;20082;-79
2022/04/07 00:08:44;;;;;;;10.00;3.17;;;9.80;99.90;;;;;;5057538;28;20134;-76
2022/04/07 00:11:10;;;;;;;10.33;3.70;;;9.90;99.90;;;;;;5054356;28;20047;-79
2022/04/07 00:13:37;;;;;;;8.00;3.77;;;9.90;99.90;;;;;;5055657;28;20048;-79
2022/04/07 00:16:03;;;;;;;14.67;4.37;;;9.80;99.90;;;;;;5076914;28;20068;-78
2022/04/07 00:18:29;;;;;;;8.57;3.57;;;9.70;99.90;;;;;;5053285;28;20086;-79
2022/04/07 00:20:56;;;;;;;10.07;3.63;;;9.70;99.90;;;;;;5087117;28;20388;-80
2022/04/07 00:23:23;;;;;;;12.50;3.90;;;9.60;99.90;;;;;;5074056;28;20476;-79
2022/04/07 00:25:49;;;;;;;10.13;3.93;;;9.60;99.90;;;;;;5058039;28;20107;-78
2022/04/07 00:28:15;;;;;;;10.73;3.97;;;9.60;99.90;;;;;;5068528;28;20564;-80
2022/04/07 00:30:44;;;;;;;11.20;4.23;;;9.50;99.90;;;;;;5054525;28;20036;-82
2022/04/07 00:33:10;;;;;;;11.17;4.23;;;9.50;99.90;;;;;;5035676;28;20527;-80
2022/04/07 00:35:36;;;;;;;15.20;4.33;;;9.50;99.90;;;;;;5044224;28;20048;-83
2022/04/07 00:38:03;;;;;;;12.00;4.70;;;9.40;99.90;;;;;;5033264;28;20347;-82
2022/04/07 00:40:29;;;;;;;14.23;4.53;;;9.40;99.90;;;;;;5071687;28;20051;-82
2022/04/07 00:42:55;;;;;;;11.80;5.40;;;9.40;99.90;;;;;;5054778;28;20041;-82
2022/04/07 00:45:22;;;;;;;14.87;5.03;;;9.40;99.90;;;;;;5079769;28;20043;-83
2022/04/07 00:47:51;;;;;;;11.97;4.70;;;9.40;99.90;;;;;;5033492;28;20103;-81
2022/04/07 00:50:18;;;;;;;10.73;4.93;;;9.40;99.90;;;;;;5078445;28;20522;-82
2022/04/07 00:52:46;;;;;;;13.67;5.40;;;9.40;99.90;;;;;;5036223;28;20070;-80
2022/04/07 00:55:13;;;;;;;11.83;5.10;;;9.40;99.90;;;;;;5061801;28;20036;-81
2022/04/07 00:57:39;;;;;;;12.40;6.03;;;9.40;99.90;;;;;;5071623;28;20048;-82
2022/04/07 01:00:07;;;;;;;13.77;8.10;;;9.40;99.90;;;;;;5071257;28;20040;-79
2022/04/07 01:02:34;;;;;;;11.43;8.90;;;9.40;99.90;;;;;;5068954;28;20094;-80
2022/04/07 01:05:01;;;;;;;11.87;7.33;;;9.30;99.90;;;;;;5078707;28;20051;-80
2022/04/07 01:07:27;;;;;;;11.17;8.33;;;9.40;99.90;;;;;;5065065;28;20406;-80
2022/04/07 01:09:53;;;;;;;17.47;10.63;;;9.30;99.90;;;;;;5071007;28;20131;-81
2022/04/07 01:12:19;;;;;;;12.37;7.53;;;9.30;99.90;;;;;;5070772;28;20530;-82
2022/04/07 01:14:53;;;;;;;9.97;6.40;;;9.30;99.90;;;;;;5046369;28;20051;-81
2022/04/07 01:17:20;;;;;;;12.00;8.35;;;9.30;99.90;;;;;;5069596;28;20109;-80
2022/04/07 01:19:46;;;;;;;12.13;8.20;;;9.30;99.90;;;;;;5054717;28;20049;-80
2022/04/07 01:22:13;;;;;;;13.83;9.73;;;9.30;99.90;;;;;;5052720;28;20045;-83
2022/04/07 01:24:40;;;;;;;16.87;9.73;;;9.30;99.90;;;;;;5053515;28;20102;-81
2022/04/07 01:27:06;;;;;;;12.23;7.97;;;9.30;99.90;;;;;;5050072;28;20053;-79
2022/04/07 01:29:32;;;;;;;12.50;7.67;;;9.30;99.90;;;;;;5069437;28;20510;-80
2022/04/07 01:32:05;;;;;;;11.07;7.53;;;9.30;99.90;;;;;;5073103;28;20040;-79
2022/04/07 01:34:31;;;;;;;12.82;7.43;;;9.30;99.90;;;;;;5069442;28;20477;-79
2022/04/07 01:36:57;;;;;;;14.57;7.37;;;9.30;99.90;;;;;;5071143;28;20131;-79
2022/04/07 01:39:26;;;;;;;11.57;6.37;;;9.30;99.90;;;;;;5053600;28;20044;-78
2022/04/07 01:41:54;;;;;;;13.63;6.63;;;9.30;99.90;;;;;;5071107;28;20457;-79
2022/04/07 01:44:21;;;;;;;8.67;6.07;;;9.30;99.90;;;;;;5045130;28;20049;-80
2022/04/07 01:46:48;;;;;;;11.77;5.50;;;9.30;99.90;;;;;;5064222;28;20037;-80
2022/04/07 01:49:14;;;;;;;7.70;5.20;;;9.30;99.90;;;;;;5061022;28;20044;-79
2022/04/07 01:51:40;;;;;;;8.83;5.03;;;9.30;99.90;;;;;;5056109;28;20543;-79
2022/04/07 01:54:11;;;;;;;15.23;4.73;;;9.30;99.90;;;;;;5077735;28;20097;-80
2022/04/07 01:56:37;;;;;;;12.63;4.73;;;9.30;99.90;;;;;;5073766;28;20045;-78
2022/04/07 01:59:07;;;;;;;14.77;4.07;;;9.30;99.90;;;;;;5057487;28;20082;-79
2022/04/07 02:01:33;;;;;;;10.07;4.27;;;9.30;99.90;;;;;;5073405;28;20483;-81
2022/04/07 02:03:58;;;;;;;10.63;3.87;;;9.30;99.90;;;;;;5044152;28;20123;-80
2022/04/07 02:06:25;;;;;;;11.73;3.77;;;9.30;99.90;;;;;;5077086;28;20071;-78
2022/04/07 02:08:50;;;;;;;10.37;3.80;;;9.30;99.90;;;;;;5056596;28;20046;-79
2022/04/07 02:11:16;;;;;;;8.10;3.13;;;9.30;99.90;;;;;;5076820;28;20044;-80
2022/04/07 02:13:42;;;;;;;10.20;3.03;;;9.20;99.90;;;;;;5075989;28;20072;-80
2022/04/07 02:16:10;;;;;;;9.90;3.27;;;9.20;99.90;;;;;;5061184;28;20094;-79
2022/04/07 02:18:38;;;;;;;12.67;3.43;;;9.20;99.90;;;;;;5061625;28;20044;-78
2022/04/07 02:21:04;;;;;;;8.87;3.10;;;9.20;99.90;;;;;;5055457;28;20040;-78
2022/04/07 02:23:30;;;;;;;7.20;2.73;;;9.20;99.90;;;;;;5078346;28;20118;-78
2022/04/07 02:25:56;;;;;;;9.80;3.17;;;9.20;99.90;;;;;;5050851;28;20158;-79
2022/04/07 02:28:22;;;;;;;11.23;3.33;;;9.20;99.90;;;;;;5054534;28;20474;-79
2022/04/07 02:30:48;;;;;;;10.73;3.20;;;9.30;99.90;;;;;;5060351;28;20119;-78
2022/04/07 02:33:15;;;;;;;14.00;3.50;;;9.30;99.90;;;;;;5072496;28;20047;-78
2022/04/07 02:35:41;;;;;;;12.20;3.63;;;9.30;99.90;;;;;;5066942;28;20048;-81
2022/04/07 02:38:07;;;;;;;13.17;3.40;;;9.30;99.90;;;;;;5055876;28;20047;-78
2022/04/07 02:40:33;;;;;;;11.13;3.87;;;9.30;99.90;;;;;;5057173;28;20044;-80
2022/04/07 02:42:58;;;;;;;13.50;3.80;;;9.30;99.90;;;;;;5077478;28;20094;-78
2022/04/07 02:45:24;;;;;;;16.73;4.03;;;9.30;99.90;;;;;;5072311;28;20066;-78
2022/04/07 02:47:50;;;;;;;13.67;3.30;;;9.30;99.90;;;;;;5061346;28;20496;-79
2022/04/07 02:50:17;;;;;;;13.63;3.37;;;9.30;99.90;;;;;;5056500;28;20067;-79
2022/04/07 02:52:43;;;;;;;13.57;3.53;;;9.30;99.90;;;;;;5039353;28;20048;-78
2022/04/07 02:55:09;;;;;;;17.57;4.23;;;9.30;99.90;;;;;;5077738;28;20505;-78
2022/04/07 02:57:35;;;;;;;14.70;4.07;;;9.30;99.90;;;;;;5071238;28;20071;-81
2022/04/07 03:00:02;;;;;;;19.17;4.30;;;9.20;99.90;;;;;;5081940;28;20068;-76
2022/04/07 03:02:28;;;;;;;15.23;3.50;;;9.20;99.90;;;;;;5070875;28;20050;-81
2022/04/07 03:04:54;;;;;;;15.53;3.83;;;9.20;99.90;;;;;;5060325;28;20044;-77
2022/04/07 03:07:21;;;;;;;15.93;3.97;;;9.20;99.90;;;;;;5071545;28;20085;-79
2022/04/07 03:09:46;;;;;;;14.07;3.60;;;9.20;99.90;;;;;;5066496;28;20059;-78
2022/04/07 03:12:15;;;;;;;15.73;3.57;;;9.20;99.90;;;;;;5057529;28;20101;-79
2022/04/07 03:14:41;;;;;;;19.47;3.80;;;9.20;99.90;;;;;;5088157;28;20045;-78
2022/04/07 03:17:07;;;;;;;16.67;3.77;;;9.20;99.90;;;;;;5109076;27;20048;-79
2022/04/07 03:19:34;;;;;;;15.03;3.60;;;9.30;99.90;;;;;;5072245;28;20081;-78
2022/04/07 03:22:00;;;;;;;12.60;3.73;;;9.20;99.90;;;;;;5053447;28;20040;-79
2022/04/07 03:24:27;;;;;;;17.50;3.63;;;9.20;99.90;;;;;;5055459;28;20037;-78
2022/04/07 03:26:53;;;;;;;15.67;3.87;;;9.20;99.90;;;;;;5054496;28;20095;-79
2022/04/07 03:29:21;;;;;;;14.97;3.13;;;9.10;99.90;;;;;;5068935;28;20442;-80
2022/04/07 03:31:46;;;;;;;13.40;3.53;;;9.10;99.90;;;;;;5071015;28;20066;-79
2022/04/07 03:34:12;;;;;;;16.17;3.80;;;9.00;99.90;;;;;;5079649;28;20040;-78
2022/04/07 03:36:38;;;;;;;15.37;3.53;;;9.00;99.90;;;;;;5072611;28;20044;-78
2022/04/07 03:39:04;;;;;;;16.47;4.20;;;8.90;99.90;;;;;;5071705;28;20076;-78
2022/04/07 03:41:31;;;;;;;13.90;3.53;;;8.90;99.90;;;;;;5041090;28;20048;-79
2022/04/07 03:43:57;;;;;;;11.67;2.93;;;8.90;99.90;;;;;;5073895;28;20044;-79
2022/04/07 03:46:22;;;;;;;9.87;2.53;;;8.90;99.90;;;;;;5063854;28;20048;-79
2022/04/07 03:48:49;;;;;;;13.37;2.87;;;8.80;99.90;;;;;;5054031;28;20084;-78
2022/04/07 03:51:15;;;;;;;9.93;2.57;;;8.80;99.90;;;;;;5072116;28;20036;-78
2022/04/07 03:53:40;;;;;;;10.83;2.80;;;8.80;99.90;;;;;;5057994;28;20036;-78
2022/04/07 03:56:06;;;;;;;11.77;2.60;;;8.80;99.90;;;;;;5053509;28;20051;-80
2022/04/07 03:58:33;;;;;;;13.63;3.07;;;8.80;99.90;;;;;;5063016;28;20437;-79
2022/04/07 04:00:59;;;;;;;12.63;3.20;;;8.80;99.90;;;;;;5054036;28;20040;-79
2022/04/07 04:03:25;;;;;;;13.40;3.60;;;8.80;99.90;;;;;;5071012;28;20408;-79
2022/04/07 04:05:50;;;;;;;13.67;3.90;;;8.80;99.90;;;;;;5056227;28;20125;-78
2022/04/07 04:08:16;;;;;;;16.07;4.37;;;8.90;99.90;;;;;;5072331;28;20547;-80
2022/04/07 04:10:42;;;;;;;14.30;3.53;;;8.90;99.90;;;;;;5076036;28;20041;-81
2022/04/07 04:13:07;;;;;;;17.80;3.93;;;8.90;99.90;;;;;;5054912;28;20052;-78
2022/04/07 04:15:34;;;;;;;24.40;4.40;;;8.90;99.90;;;;;;5059518;28;20078;-79
2022/04/07 04:18:00;;;;;;;18.33;5.03;;;8.90;99.90;;;;;;5070219;28;20392;-78
2022/04/07 04:20:26;;;;;;;19.27;4.40;;;9.00;99.90;;;;;;5041238;28;20044;-80
2022/04/07 04:22:52;;;;;;;20.43;4.93;;;8.90;99.90;;;;;;5054314;28;20488;-79
2022/04/07 04:25:19;;;;;;;21.23;4.67;;;8.90;99.90;;;;;;5053097;28;20044;-78
2022/04/07 04:27:44;;;;;;;21.80;4.73;;;9.00;99.90;;;;;;5053407;28;20052;-77
2022/04/07 04:30:13;;;;;;;23.53;5.33;;;9.00;99.90;;;;;;5050139;28;20083;-78
2022/04/07 04:32:43;;;;;;;19.53;5.20;;;9.00;99.90;;;;;;5055349;28;20031;-79
2022/04/07 04:35:10;;;;;;;24.93;5.27;;;8.90;99.90;;;;;;5037737;28;20430;-80
2022/04/07 04:37:36;;;;;;;20.17;5.07;;;9.00;99.90;;;;;;5069813;28;20078;-79
2022/04/07 04:40:02;;;;;;;24.40;4.23;;;9.00;99.90;;;;;;5059132;28;20052;-79
2022/04/07 04:42:27;;;;;;;21.97;4.93;;;9.00;99.90;;;;;;5069325;28;20060;-79
2022/04/07 04:44:53;;;;;;;26.43;4.97;;;9.00;99.90;;;;;;5058061;28;20069;-79
2022/04/07 04:47:19;;;;;;;22.43;4.40;;;9.00;99.90;;;;;;5081616;28;20123;-78
2022/04/07 04:49:46;;;;;;;23.30;4.70;;;9.00;99.90;;;;;;5053043;28;20048;-78
2022/04/07 04:52:12;;;;;;;22.17;4.30;;;9.00;99.90;;;;;;5048275;28;20037;-80
2022/04/07 04:54:38;;;;;;;24.50;4.47;;;9.00;99.90;;;;;;5067559;28;20043;-79
2022/04/07 04:57:04;;;;;;;23.77;3.93;;;9.10;99.90;;;;;;5056801;28;20102;-79
2022/04/07 04:59:30;;;;;;;30.37;5.40;;;9.10;99.90;;;;;;5043820;28;20036;-78
2022/04/07 05:01:56;;;;;;;25.60;5.17;;;9.10;99.90;;;;;;5054265;28;20123;-80
2022/04/07 05:04:21;;;;;;;25.27;4.23;;;9.00;99.90;;;;;;5053101;28;20036;-82
2022/04/07 05:06:48;;;;;;;32.60;5.17;;;8.90;99.90;;;;;;5053448;28;20110;-80
2022/04/07 05:09:14;;;;;;;22.87;4.70;;;8.90;99.90;;;;;;5053546;28;20119;-81
2022/04/07 05:11:40;;;;;;;25.10;5.53;;;8.80;99.90;;;;;;5072515;28;20040;-80
2022/04/07 05:14:06;;;;;;;29.27;6.20;;;8.80;99.90;;;;;;5053044;28;20062;-81
2022/04/07 05:16:32;;;;;;;31.53;6.07;;;8.70;99.90;;;;;;5043012;28;20036;-81
2022/04/07 05:18:57;;;;;;;32.87;6.47;;;8.70;99.90;;;;;;5052863;28;20488;-79
2022/04/07 05:21:23;;;;;;;30.07;7.03;;;8.70;99.90;;;;;;5054112;28;20557;-80
2022/04/07 05:23:50;;;;;;;25.83;6.63;;;8.70;99.90;;;;;;5052848;28;20045;-79
2022/04/07 05:26:16;;;;;;;23.30;6.40;;;8.70;99.90;;;;;;5052940;28;20041;-81
2022/04/07 05:28:42;;;;;;;21.27;6.33;;;8.70;99.90;;;;;;5070423;28;20063;-79
2022/04/07 05:31:08;;;;;;;35.13;7.87;;;8.60;99.90;;;;;;5049373;28;20131;-82
2022/04/07 05:33:34;;;;;;;25.67;7.23;;;8.60;99.90;;;;;;5067312;28;20590;-80
2022/04/07 05:35:59;;;;;;;22.73;6.97;;;8.60;99.90;;;;;;5052489;28;20044;-80
2022/04/07 05:38:25;;;;;;;18.67;6.90;;;8.70;99.90;;;;;;5051983;28;20510;-79
2022/04/07 05:40:52;;;;;;;23.70;7.23;;;8.70;99.90;;;;;;5053509;28;20128;-79
2022/04/07 05:43:18;;;;;;;21.00;5.97;;;8.70;99.90;;;;;;5047301;28;20665;-80
2022/04/07 05:45:45;;;;;;;20.27;6.47;;;8.70;99.90;;;;;;5068478;28;20330;-80
2022/04/07 05:48:11;;;;;;;19.93;6.70;;;8.70;99.90;;;;;;5053260;28;20056;-81
2022/04/07 05:50:37;;;;;;;17.90;6.60;;;8.70;99.90;;;;;;5069688;28;20028;-81
2022/04/07 05:53:03;;;;;;;18.40;6.33;;;8.70;99.90;;;;;;5068631;28;20043;-77
2022/04/07 05:55:28;;;;;;;23.23;6.20;;;8.70;99.90;;;;;;5023418;28;20053;-79
2022/04/07 05:57:55;;;;;;;17.60;6.97;;;8.70;99.90;;;;;;5052545;28;20561;-79
2022/04/07 06:00:21;;;;;;;6.33;1.40;;;8.70;99.90;;;;;;5077407;28;20048;-77
2022/04/07 06:02:48;;;;;;;4.40;0.73;;;8.60;99.90;;;;;;5044839;28;20051;-78
2022/04/07 06:05:18;;;;;;;5.23;0.83;;;8.20;99.90;;;;;;5052792;28;20040;-80
2022/04/07 06:07:46;;;;;;;3.37;1.07;;;7.60;99.90;;;;;;5048620;28;20045;-77
2022/04/07 06:10:12;;;;;;;2.43;0.63;;;7.10;99.90;;;;;;5069429;28;20032;-79
2022/04/07 06:12:42;;;;;;;2.57;0.80;;;6.80;99.90;;;;;;5036362;28;20114;-79
2022/04/07 06:15:10;;;;;;;3.30;0.80;;;6.50;99.90;;;;;;5053785;28;20065;-79
2022/04/07 06:17:38;;;;;;;3.90;1.10;;;6.40;99.90;;;;;;5041560;28;20123;-77
2022/04/07 06:20:10;;;;;;;5.90;1.20;;;6.30;99.90;;;;;;5050429;28;20050;-80
2022/04/07 06:22:36;;;;;;;5.40;1.00;;;6.10;99.90;;;;;;5052125;28;20097;-77
2022/04/07 06:25:03;;;;;;;4.93;1.20;;;6.10;99.90;;;;;;5052686;28;20040;-80
2022/04/07 06:27:33;;;;;;;6.53;1.40;;;6.00;99.90;;;;;;5036457;28;20037;-80
2022/04/07 06:29:59;;;;;;;5.10;1.30;;;6.00;99.90;;;;;;5067578;28;20039;-80
2022/04/07 06:32:26;;;;;;;7.83;1.20;;;5.90;99.90;;;;;;5045466;28;20450;-80
2022/04/07 06:34:52;;;;;;;6.43;1.27;;;5.90;99.90;;;;;;5085439;28;20044;-77
2022/04/07 06:37:17;;;;;;;6.77;1.70;;;5.90;99.90;;;;;;5056134;28;20066;-78
2022/04/07 06:39:43;;;;;;;5.93;1.10;;;5.80;99.90;;;;;;5055094;28;20052;-79
2022/04/07 06:42:09;;;;;;;4.03;1.20;;;5.80;99.90;;;;;;5056992;28;20155;-80
2022/04/07 06:44:34;;;;;;;6.97;1.43;;;5.80;99.90;;;;;;5035463;28;20043;-79
2022/04/07 06:47:00;;;;;;;5.87;1.30;;;5.80;99.90;;;;;;5053150;28;20052;-79
2022/04/07 06:49:27;;;;;;;6.03;1.17;;;5.70;99.90;;;;;;5049319;28;20071;-79
2022/04/07 06:51:53;;;;;;;4.43;1.00;;;5.80;99.90;;;;;;5066027;28;20455;-79
2022/04/07 06:54:18;;;;;;;3.03;0.60;;;5.80;99.90;;;;;;5054240;28;20029;-76
2022/04/07 06:56:44;;;;;;;1.90;0.80;;;5.80;99.90;;;;;;5046729;28;20064;-80
2022/04/07 06:59:10;;;;;;;5.23;0.90;;;5.80;99.90;;;;;;5053707;28;20051;-79
2022/04/07 07:01:36;;;;;;;4.50;1.00;;;5.80;99.90;;;;;;5050563;28;20048;-78
2022/04/07 07:04:02;;;;;;;2.73;0.80;;;5.80;99.90;;;;;;5068952;28;20041;-81
2022/04/07 07:06:29;;;;;;;4.97;1.10;;;5.90;99.90;;;;;;5050168;28;20049;-79
2022/04/07 07:08:54;;;;;;;3.50;0.80;;;5.90;99.90;;;;;;5047757;28;20082;-78
2022/04/07 07:11:20;;;;;;;4.20;0.80;;;5.80;99.90;;;;;;5035431;28;20048;-80
2022/04/07 07:13:46;;;;;;;2.60;0.80;;;5.80;99.90;;;;;;5049924;28;20070;-78
2022/04/07 07:16:12;;;;;;;3.23;1.07;;;5.80;99.90;;;;;;5050736;28;20048;-74
2022/04/07 07:18:38;;;;;;;3.30;0.73;;;5.80;99.90;;;;;;5067537;28;20646;-77
2022/04/07 07:21:04;;;;;;;3.33;0.63;;;5.80;99.90;;;;;;5054165;28;20054;-79
2022/04/07 07:23:32;;;;;;;5.67;0.80;;;5.80;99.90;;;;;;5069394;28;20040;-79
2022/04/07 07:25:58;;;;;;;5.00;0.80;;;5.80;99.90;;;;;;5040783;28;20086;-78
2022/04/07 07:28:23;;;;;;;3.93;0.80;;;5.80;99.90;;;;;;5067707;28;20032;-78
2022/04/07 07:30:49;;;;;;;2.60;0.70;;;5.80;99.90;;;;;;5053860;28;20041;-80
2022/04/07 07:33:15;;;;;;;0.73;0.50;;;5.90;99.90;;;;;;5070941;28;20043;-78
2022/04/07 07:35:43;;;;;;;6.03;0.80;;;5.80;99.90;;;;;;5037466;28;20115;-79
2022/04/07 07:38:09;;;;;;;4.27;0.90;;;5.80;99.90;;;;;;5072091;28;20055;-80
2022/04/07 07:40:36;;;;;;;5.47;1.00;;;5.90;99.90;;;;;;5038304;28;20419;-77
2022/04/07 07:43:02;;;;;;;3.13;1.07;;;5.80;99.90;;;;;;5062103;28;20050;-79
2022/04/07 07:45:29;;;;;;;5.13;0.90;;;5.90;99.90;;;;;;5037949;28;20053;-78
2022/04/07 07:47:56;;;;;;;4.60;0.90;;;5.90;99.90;;;;;;5074276;28;20041;-77
2022/04/07 07:50:22;;;;;;;4.93;0.87;;;5.90;99.90;;;;;;5078264;28;20071;-79
2022/04/07 07:52:48;;;;;;;7.40;1.10;;;5.90;99.90;;;;;;5071010;28;20040;-77
2022/04/07 07:55:14;;;;;;;4.93;1.07;;;5.90;99.90;;;;;;5058442;28;20040;-79
2022/04/07 07:57:41;;;;;;;5.63;1.57;;;5.90;99.90;;;;;;5057529;28;20044;-78
2022/04/07 08:00:09;;;;;;;3.43;0.90;;;6.00;99.90;;;;;;5059647;28;20072;-78
2022/04/07 08:02:36;;;;;;;2.57;1.00;;;6.00;99.90;;;;;;5033058;28;20071;-78
2022/04/07 08:05:03;;;;;;;9.10;1.40;;;6.00;99.90;;;;;;5035394;28;20385;-78
2022/04/07 08:07:29;;;;;;;3.33;0.90;;;6.00;99.90;;;;;;5073533;28;20518;-77
2022/04/07 08:09:56;;;;;;;3.83;0.97;;;6.00;99.90;;;;;;5042346;28;20072;-77
2022/04/07 08:12:22;;;;;;;3.07;0.90;;;6.10;99.90;;;;;;5074050;28;20037;-78
2022/04/07 08:14:49;;;;;;;4.83;1.07;;;6.10;99.90;;;;;;5071558;28;20488;-78
2022/04/07 08:17:15;;;;;;;4.23;1.57;;;6.20;99.90;;;;;;5058152;28;20054;-77
2022/04/07 08:19:40;;;;;;;5.50;0.97;;;6.20;99.90;;;;;;5072091;28;20482;-77
2022/04/07 08:22:07;;;;;;;5.57;1.20;;;6.30;99.90;;;;;;5055783;28;20040;-78
2022/04/07 08:24:33;;;;;;;3.07;0.90;;;6.30;99.90;;;;;;5063269;28;20043;-77
2022/04/07 08:26:59;;;;;;;3.17;0.80;;;6.40;99.90;;;;;;5070694;28;20044;-77
2022/04/07 08:29:24;;;;;;;4.07;1.40;;;6.40;99.90;;;;;;5055300;28;20136;-78
2022/04/07 08:31:52;;;;;;;4.20;0.97;;;6.40;99.90;;;;;;5055535;28;20502;-77
2022/04/07 08:34:17;;;;;;;4.63;0.83;;;6.50;99.90;;;;;;5072216;28;20036;-76
2022/04/07 08:36:43;;;;;;;4.87;1.20;;;6.60;99.90;;;;;;5056683;28;20036;-77
2022/04/07 08:39:09;;;;;;;4.67;1.00;;;6.70;99.90;;;;;;5066665;28;20074;-78
2022/04/07 08:41:36;;;;;;;4.33;1.23;;;6.90;99.90;;;;;;5068221;28;20041;-77
2022/04/07 08:44:03;;;;;;;3.90;0.93;;;7.00;99.90;;;;;;5039888;28;20040;-77
2022/04/07 08:46:31;;;;;;;4.47;0.90;;;7.10;99.90;;;;;;5067907;28;20083;-77
2022/04/07 08:49:01;;;;;;;5.17;1.03;;;7.40;99.90;;;;;;5071685;28;20044;-78
2022/04/07 08:51:28;;;;;;;3.50;0.97;;;7.80;99.90;;;;;;5070486;28;20048;-78
2022/04/07 08:53:54;;;;;;;4.73;1.13;;;8.50;99.90;;;;;;5057179;28;20036;-77
2022/04/07 08:56:20;;;;;;;3.03;0.73;;;9.30;99.90;;;;;;5049235;28;20032;-77
2022/04/07 08:58:46;;;;;;;5.00;1.03;;;10.20;99.90;;;;;;5040357;28;20480;-76
2022/04/07 09:01:11;;;;;;;5.43;0.90;;;11.10;99.90;;;;;;5053655;28;20056;-78
2022/04/07 09:03:37;;;;;;;4.57;1.07;;;11.70;99.90;;;;;;5067920;28;20123;-77
2022/04/07 09:06:05;;;;;;;4.00;1.00;;;12.30;99.90;;;;;;5070606;28;20040;-77
2022/04/07 09:08:32;;;;;;;4.63;1.20;;;12.40;99.90;;;;;;5054606;28;20036;-78
2022/04/07 09:10:59;;;;;;;3.27;0.90;;;12.30;99.90;;;;;;5062227;28;20048;-76
2022/04/07 09:13:29;;;;;;;4.17;1.23;;;12.20;99.90;;;;;;5068496;28;20048;-77
2022/04/07 09:15:55;;;;;;;5.07;1.50;;;12.10;99.90;;;;;;5067060;28;20041;-77
2022/04/07 09:18:24;;;;;;;7.00;1.23;;;12.10;99.90;;;;;;5064602;28;20073;-77
2022/04/07 09:20:50;;;;;;;5.63;1.20;;;11.90;99.90;;;;;;5051324;28;20036;-77
2022/04/07 09:23:18;;;;;;;8.17;1.20;;;12.00;99.90;;;;;;5049879;28;20059;-78
2022/04/07 09:25:46;;;;;;;5.40;1.40;;;12.10;99.90;;;;;;5066863;28;20070;-78
2022/04/07 09:28:23;;;;;;;4.93;1.10;;;12.20;99.90;;;;;;5079983;28;20059;-77
2022/04/07 09:30:49;;;;;;;8.40;1.10;;;12.70;99.90;;;;;;5050024;28;20032;-76
2022/04/07 09:33:20;;;;;;;9.60;1.70;;;13.50;99.90;;;;;;5035800;28;20033;-78
2022/04/07 09:35:58;;;;;;;7.47;1.30;;;14.00;99.90;;;;;;5069785;28;20481;-75
2022/04/07 09:38:25;;;;;;;9.20;1.40;;;14.20;99.90;;;;;;5049775;28;20399;-76
2022/04/07 09:40:51;;;;;;;6.47;1.30;;;14.40;99.90;;;;;;5067001;28;20487;-77
2022/04/07 09:43:17;;;;;;;6.17;1.33;;;14.10;99.90;;;;;;5029871;28;20129;-76
2022/04/07 09:45:45;;;;;;;7.47;1.60;;;13.80;99.90;;;;;;5048409;28;20117;-77
2022/04/07 09:48:17;;;;;;;9.20;1.70;;;13.50;99.90;;;;;;5050972;28;20040;-77
2022/04/07 09:51:00;;;;;;;11.00;1.87;;;13.00;99.90;;;;;;5054215;28;20086;-76
2022/04/07 09:53:33;;;;;;;8.75;1.60;;;12.70;99.90;;;;;;5054102;28;20036;-78
2022/04/07 09:56:00;;;;;;;7.80;1.90;;;12.80;99.90;;;;;;5058927;28;20072;-79
2022/04/07 09:58:27;;;;;;;7.90;1.60;;;12.60;99.90;;;;;;5043231;28;20037;-79
2022/04/07 10:00:53;;;;;;;9.27;1.97;;;12.30;99.90;;;;;;5069113;28;20120;-80
2022/04/07 10:03:20;;;;;;;10.90;1.90;;;12.70;99.90;;;;;;5041281;28;20116;-79
2022/04/07 10:05:47;;;;;;;12.63;1.93;;;13.40;99.90;;;;;;5070605;28;20068;-78
2022/04/07 10:08:15;;;;;;;10.47;1.87;;;13.40;99.90;;;;;;5076847;28;20032;-78
2022/04/07 10:10:42;;;;;;;12.63;2.20;;;13.10;99.90;;;;;;5080567;28;20523;-75
2022/04/07 10:13:09;;;;;;;10.50;1.87;;;12.90;99.90;;;;;;5060691;28;20041;-78
2022/04/07 10:15:36;;;;;;;10.83;2.13;;;12.70;99.90;;;;;;5077467;28;20041;-77
2022/04/07 10:18:05;;;;;;;11.67;2.27;;;12.30;99.90;;;;;;5048097;28;20051;-78
2022/04/07 10:20:35;;;;;;;14.23;2.43;;;12.40;99.90;;;;;;5075276;28;20075;-76
2022/04/07 10:23:12;;;;;;;11.87;2.00;;;12.50;99.90;;;;;;5073028;28;20045;-76
2022/04/07 10:25:43;;;;;;;12.47;2.10;;;12.80;99.90;;;;;;5060176;28;20040;-79
2022/04/07 10:28:11;;;;;;;9.77;1.93;;;13.10;99.90;;;;;;5069481;28;20039;-77
2022/04/07 10:30:47;;;;;;;14.17;1.87;;;13.30;99.90;;;;;;5059282;28;20042;-75
2022/04/07 10:33:31;;;;;;;10.80;2.50;;;13.30;99.90;;;;;;5054243;28;20056;-79
2022/04/07 10:35:56;;;;;;;11.18;1.95;;;13.60;99.90;;;;;;5081728;28;20039;-76
2022/04/07 10:38:36;;;;;;;12.43;2.17;;;13.50;99.90;;;;;;5072154;28;20044;-76
2022/04/07 10:41:02;;;;;;;11.67;2.90;;;13.40;99.90;;;;;;5059345;28;20080;-75
2022/04/07 10:43:29;;;;;;;11.33;2.33;;;13.60;99.90;;;;;;5057782;28;20076;-79
2022/04/07 10:46:08;;;;;;;11.93;2.53;;;13.40;99.90;;;;;;5057916;28;20454;-78
2022/04/07 10:48:36;;;;;;;12.83;2.23;;;13.00;99.90;;;;;;5067840;28;20041;-78
2022/04/07 10:51:03;;;;;;;11.17;2.50;;;12.70;99.90;;;;;;5052661;28;20078;-76
2022/04/07 10:53:31;;;;;;;16.43;2.77;;;12.50;99.90;;;;;;5068071;28;20121;-78
2022/04/07 10:56:06;;;;;;;13.30;2.83;;;12.50;99.90;;;;;;5072733;28;20402;-80
2022/04/07 10:58:47;;;;;;;15.33;2.70;;;12.50;99.90;;;;;;5057314;28;20059;-77
2022/04/07 11:01:47;;;;;;;15.80;2.50;;;12.40;99.90;;;;;;5075493;28;20405;-78
2022/04/07 11:04:30;;;;;;;13.43;2.83;;;12.30;99.90;;;;;;5074678;28;20416;-79
2022/04/07 11:07:19;;;;;;;10.03;2.33;;;12.30;99.90;;;;;;5057258;28;20530;-79
2022/04/07 11:09:47;;;;;;;11.60;2.13;;;12.60;99.90;;;;;;5055701;28;20041;-77
2022/04/07 11:12:17;;;;;;;15.70;2.70;;;12.40;99.90;;;;;;5072205;28;20040;-79
2022/04/07 11:14:46;;;;;;;11.67;2.53;;;12.10;99.90;;;;;;5063272;28;20037;-78
2022/04/07 11:17:21;;;;;;;10.63;2.47;;;11.90;99.90;;;;;;5036657;28;20052;-78
2022/04/07 11:19:56;;;;;;;13.63;3.10;;;11.60;99.90;;;;;;5083320;28;20040;-76
2022/04/07 11:22:46;;;;;;;14.83;2.80;;;11.20;99.90;;;;;;5054538;28;20040;-79
2022/04/07 11:25:12;;;;;;;13.77;2.30;;;10.80;99.90;;;;;;5040034;28;20059;-79
2022/04/07 11:27:42;;;;;;;14.60;2.83;;;10.70;99.90;;;;;;5036508;28;20040;-77
2022/04/07 11:30:10;;;;;;;13.57;2.60;;;10.90;99.90;;;;;;5051957;28;20044;-79
2022/04/07 11:32:38;;;;;;;13.43;2.73;;;11.40;99.90;;;;;;5053327;28;20052;-79
2022/04/07 11:35:14;;;;;;;17.00;2.67;;;11.40;99.90;;;;;;5071586;28;20048;-81
2022/04/07 11:37:40;;;;;;;20.17;3.37;;;11.40;99.90;;;;;;5052243;28;20040;-80
2022/04/07 11:40:07;;;;;;;18.13;3.83;;;11.40;99.90;;;;;;5037117;28;20055;-79
2022/04/07 11:42:33;;;;;;;21.00;4.00;;;11.50;99.90;;;;;;5063964;28;20434;-75
2022/04/07 11:45:00;;;;;;;14.47;2.83;;;11.80;99.90;;;;;;5051736;28;20070;-80
2022/04/07 11:47:34;;;;;;;12.93;2.70;;;11.80;99.90;;;;;;5053234;28;20037;-75
2022/04/07 11:49:59;;;;;;;;;;;11.70;99.90;;;;;;5069519;28;20044;-78
2022/04/07 11:52:27;;;;;;;17.43;3.20;;;11.50;99.90;;;;;;5068482;28;19923;-79
2022/04/07 11:54:54;;;;;;;15.87;2.90;;;11.50;99.90;;;;;;5053603;28;20184;-77
2022/04/07 11:57:22;;;;;;;19.73;3.33;;;11.40;99.90;;;;;;5055508;28;20048;-78
2022/04/07 11:59:48;;;;;;;18.20;2.80;;;11.20;99.90;;;;;;5054917;28;20395;-76
2022/04/07 12:02:20;;;;;;;16.93;3.40;;;11.10;99.90;;;;;;5033883;28;20032;-77
2022/04/07 12:04:52;;;;;;;14.97;3.10;;;11.10;99.90;;;;;;5070045;28;20040;-76
2022/04/07 12:07:18;;;;;;;14.43;2.93;;;11.00;99.90;;;;;;5048889;28;20041;-79
2022/04/07 12:09:44;;;;;;;12.17;2.50;;;11.00;99.90;;;;;;5087605;28;20079;-77
2022/04/07 12:12:12;;;;;;;24.03;3.60;;;10.90;99.90;;;;;;5071102;28;20095;-78
2022/04/07 12:14:42;;;;;;;17.17;3.67;;;11.00;99.90;;;;;;5037940;28;20385;-80
2022/04/07 12:17:09;;;;;;;14.13;2.47;;;11.00;99.90;;;;;;5043953;28;20673;-78
2022/04/07 12:19:43;;;;;;;11.70;3.00;;;11.20;99.90;;;;;;5071889;28;20492;-77
2022/04/07 12:22:10;;;;;;;18.00;3.10;;;11.30;99.90;;;;;;5056048;28;20047;-78
2022/04/07 12:24:36;;;;;;;18.60;3.47;;;11.20;99.90;;;;;;5070483;28;20041;-76
2022/04/07 12:27:04;;;;;;;15.40;3.03;;;11.20;99.90;;;;;;5038519;28;20086;-77
2022/04/07 12:29:33;;;;;;;15.23;2.53;;;11.20;99.90;;;;;;5071226;28;20450;-80
2022/04/07 12:32:00;;;;;;;16.30;2.77;;;11.30;99.90;;;;;;5051644;28;20036;-80
2022/04/07 12:34:26;;;;;;;12.87;2.93;;;11.30;99.90;;;;;;5061437;28;20057;-78
2022/04/07 12:36:52;;;;;;;13.37;2.37;;;11.40;99.90;;;;;;5069996;28;20079;-77
2022/04/07 12:39:20;;;;;;;10.47;2.17;;;11.60;99.90;;;;;;5089473;28;20047;-79
2022/04/07 12:41:49;;;;;;;11.67;2.50;;;12.00;99.90;;;;;;5055746;28;20042;-78
2022/04/07 12:44:17;;;;;;;10.50;2.53;;;12.40;99.90;;;;;;5078666;28;20471;-78
2022/04/07 12:46:45;;;;;;;15.47;2.80;;;12.30;99.90;;;;;;5071277;28;20487;-78
2022/04/07 12:49:11;;;;;;;9.63;2.37;;;12.20;99.90;;;;;;5082911;28;20067;-75